Time;durP1;ratioP1;P1;durP2;ratioP2;P2;SDS_P1;SDS_P2;PMS_P1;PMS_P2;Temp;Humidity;BMP_temperature;BMP_pressure;BME280_temperature;BME280_humidity;BME280_pressure;Samples;Min_cycle;Max_cycle;Signal;HPM_P1;HPM_P2
2022/05/24 00:02:08;;;;;;;2.57;2.07;;;17.80;99.90;;;;;;5012231;28;20532;-68
2022/05/24 00:04:33;;;;;;;2.40;2.20;;;17.90;99.90;;;;;;5012088;28;20691;-68
2022/05/24 00:06:59;;;;;;;3.43;1.70;;;17.90;99.90;;;;;;5012271;28;20497;-68
2022/05/24 00:09:26;;;;;;;4.07;1.90;;;17.80;99.90;;;;;;5011593;28;20207;-67
2022/05/24 00:11:52;;;;;;;1.67;1.47;;;17.80;99.90;;;;;;5012186;28;20553;-67
2022/05/24 00:15:19;;;;;;;3.30;2.67;;;17.80;99.90;;;;;;5011832;28;20425;-67
2022/05/24 00:17:07;;;;;;;3.67;1.93;;;17.80;99.90;;;;;;5011941;28;20432;-68
2022/05/24 00:19:34;;;;;;;2.00;1.90;;;17.70;99.90;;;;;;5011603;28;20441;-68
2022/05/24 00:21:59;;;;;;;5.73;1.80;;;17.50;99.90;;;;;;5010756;28;20817;-68
2022/05/24 00:24:25;;;;;;;2.30;1.70;;;17.30;99.90;;;;;;5011996;28;20513;-69
2022/05/24 00:26:50;;;;;;;2.03;1.80;;;17.30;99.90;;;;;;5011888;28;20636;-68
2022/05/24 00:29:16;;;;;;;2.13;1.77;;;17.30;99.90;;;;;;5011671;28;20202;-68
2022/05/24 00:31:42;;;;;;;2.00;1.80;;;17.20;99.90;;;;;;5012006;28;20186;-67
2022/05/24 00:34:08;;;;;;;1.87;1.73;;;17.10;99.90;;;;;;5011876;28;20163;-68
2022/05/24 00:36:33;;;;;;;1.60;1.47;;;17.10;99.90;;;;;;5011793;28;20567;-68
2022/05/24 00:38:59;;;;;;;3.40;1.67;;;17.00;99.90;;;;;;5013084;28;20179;-68
2022/05/24 00:41:36;;;;;;;1.37;1.27;;;17.10;99.90;;;;;;5015391;28;20343;-68
2022/05/24 00:44:06;;;;;;;1.70;1.60;;;17.10;99.90;;;;;;5015606;28;20178;-68
2022/05/24 00:46:43;;;;;;;1.50;1.40;;;17.10;99.90;;;;;;5015427;28;20456;-68
2022/05/24 00:49:23;;;;;;;2.03;1.93;;;17.10;99.90;;;;;;5014979;28;20479;-68
2022/05/24 00:51:54;;;;;;;1.70;1.60;;;17.10;99.90;;;;;;5015201;28;20444;-68
2022/05/24 00:54:20;;;;;;;1.60;1.50;;;17.10;99.90;;;;;;5015366;28;20512;-69
2022/05/24 00:57:06;;;;;;;1.43;1.43;;;17.10;99.90;;;;;;5015408;28;20552;-69
2022/05/24 00:59:44;;;;;;;3.33;1.40;;;17.10;99.90;;;;;;5014826;28;20195;-68
2022/05/24 01:02:10;;;;;;;2.43;1.63;;;17.10;99.90;;;;;;5015072;28;20418;-69
2022/05/24 01:04:35;;;;;;;1.40;1.30;;;17.10;99.90;;;;;;5015070;28;20789;-69
2022/05/24 01:07:01;;;;;;;1.10;1.10;;;17.00;99.90;;;;;;5015039;28;20229;-68
2022/05/24 01:09:46;;;;;;;1.30;1.27;;;17.00;99.90;;;;;;5014730;28;20277;-68
2022/05/24 01:12:23;;;;;;;1.30;1.30;;;17.00;99.90;;;;;;5015145;28;20171;-68
2022/05/24 01:14:51;;;;;;;1.67;1.57;;;17.00;99.90;;;;;;5014827;28;20421;-68
2022/05/24 01:17:17;;;;;;;1.57;1.47;;;17.10;99.90;;;;;;5015025;28;20429;-69
2022/05/24 01:19:46;;;;;;;1.63;1.53;;;17.20;99.90;;;;;;5014493;28;20438;-68
2022/05/24 01:22:39;;;;;;;1.53;1.43;;;17.20;99.90;;;;;;5013477;28;20174;-68
2022/05/24 01:25:28;;;;;;;1.50;1.40;;;17.20;99.90;;;;;;5014617;28;20972;-69
2022/05/24 01:27:54;;;;;;;1.27;1.17;;;17.20;99.90;;;;;;5014269;28;20822;-68
2022/05/24 01:30:20;;;;;;;1.73;1.63;;;17.20;99.90;;;;;;5014363;28;20444;-69
2022/05/24 01:38:19;;;;;;;1.50;1.40;;;17.00;99.90;;;;;;5014238;28;20476;-68
2022/05/24 01:40:47;;;;;;;1.60;1.50;;;17.00;99.90;;;;;;5014465;28;20507;-68
2022/05/24 01:43:15;;;;;;;1.93;1.63;;;16.90;99.90;;;;;;5014410;28;20422;-68
2022/05/24 01:46:00;;;;;;;1.40;1.30;;;16.90;99.90;;;;;;5014322;28;20471;-67
2022/05/24 01:48:48;;;;;;;3.60;1.63;;;16.90;99.90;;;;;;5013681;28;20584;-68
2022/05/24 01:51:16;;;;;;;1.30;1.30;;;16.80;99.90;;;;;;5007257;28;20453;-68
2022/05/24 01:53:49;;;;;;;1.70;1.60;;;16.90;99.90;;;;;;5014189;28;20413;-67
2022/05/24 01:56:20;;;;;;;1.90;1.80;;;16.90;99.90;;;;;;5014233;28;20564;-68
2022/05/24 01:58:50;;;;;;;1.93;1.60;;;16.90;99.90;;;;;;5013486;28;20417;-67
2022/05/24 02:01:50;;;;;;;1.37;1.30;;;16.90;99.90;;;;;;5014080;28;20476;-67
2022/05/24 02:04:17;;;;;;;1.87;1.70;;;16.80;99.90;;;;;;5014160;28;20418;-67
2022/05/24 02:06:43;;;;;;;1.10;1.10;;;16.80;99.90;;;;;;5013942;28;20786;-67
2022/05/24 02:09:10;;;;;;;1.83;1.60;;;16.80;99.90;;;;;;5013474;28;20465;-66
2022/05/24 02:11:36;;;;;;;2.03;1.53;;;16.80;99.90;;;;;;5013893;28;20175;-67
2022/05/24 02:14:12;;;;;;;1.90;1.80;;;16.70;99.90;;;;;;5013841;28;20418;-68
2022/05/24 02:16:48;;;;;;;1.73;1.63;;;16.60;99.90;;;;;;5013833;28;20555;-67
2022/05/24 02:19:15;;;;;;;1.50;1.40;;;16.60;99.90;;;;;;5013469;28;20925;-66
2022/05/24 02:21:45;;;;;;;1.60;1.23;;;16.50;99.90;;;;;;5013697;28;20421;-67
2022/05/24 02:24:20;;;;;;;1.57;1.47;;;16.50;99.90;;;;;;5013672;28;20417;-66
2022/05/24 02:26:46;;;;;;;1.90;1.80;;;16.50;99.90;;;;;;5013559;28;20778;-67
2022/05/24 02:29:12;;;;;;;1.57;1.47;;;16.40;99.90;;;;;;5013109;28;20512;-67
2022/05/24 02:31:38;;;;;;;2.30;1.57;;;16.40;99.90;;;;;;5013455;28;20509;-67
2022/05/24 02:34:04;;;;;;;1.50;1.40;;;16.40;99.90;;;;;;5013513;28;20990;-67
2022/05/24 02:36:29;;;;;;;2.07;1.60;;;16.40;99.90;;;;;;5013429;28;20181;-67
2022/05/24 02:38:55;;;;;;;1.60;1.50;;;16.40;99.90;;;;;;5013168;28;20186;-67
2022/05/24 02:41:31;;;;;;;1.00;1.00;;;16.50;99.90;;;;;;5013091;28;20199;-67
2022/05/24 02:44:02;;;;;;;1.90;1.43;;;16.50;99.90;;;;;;5013273;28;20167;-68
2022/05/24 02:46:30;;;;;;;2.27;2.17;;;16.50;99.90;;;;;;5013366;28;20814;-66
2022/05/24 02:48:56;;;;;;;1.60;1.50;;;16.50;99.90;;;;;;5012802;28;20457;-67
2022/05/24 02:51:22;;;;;;;3.00;2.70;;;16.50;99.90;;;;;;5012511;28;20442;-67
2022/05/24 02:53:48;;;;;;;2.50;2.30;;;16.30;99.90;;;;;;5013074;28;20182;-67
2022/05/24 02:56:14;;;;;;;1.70;1.60;;;16.30;99.90;;;;;;5013016;28;20417;-66
2022/05/24 02:58:42;;;;;;;1.70;1.60;;;16.30;99.90;;;;;;5012835;28;20163;-66
2022/05/24 03:01:28;;;;;;;2.03;1.83;;;16.20;99.90;;;;;;5011952;28;20437;-66
2022/05/24 03:03:55;;;;;;;4.40;1.80;;;16.30;99.90;;;;;;5012969;28;20772;-67
2022/05/24 03:06:22;;;;;;;1.60;1.47;;;16.20;99.90;;;;;;5012829;28;20428;-68
2022/05/24 03:14:14;;;;;;;2.00;1.80;;;16.00;99.90;;;;;;5012676;28;20495;-67
2022/05/24 03:14:19;;;;;;;2.10;1.93;;;16.10;99.90;;;;;;5012606;28;20433;-66
2022/05/24 03:16:46;;;;;;;1.70;1.60;;;16.10;99.90;;;;;;5012730;28;21201;-66
2022/05/24 03:19:12;;;;;;;1.67;1.57;;;16.10;99.90;;;;;;5012317;28;20426;-67
2022/05/24 03:21:38;;;;;;;1.70;1.60;;;16.00;99.90;;;;;;5012634;28;20512;-67
2022/05/24 03:24:04;;;;;;;1.50;1.40;;;16.10;99.90;;;;;;5012538;28;20521;-67
2022/05/24 03:26:29;;;;;;;1.87;1.77;;;16.10;99.90;;;;;;5012565;28;20261;-66
2022/05/24 03:28:55;;;;;;;3.73;1.87;;;16.10;99.90;;;;;;5012391;28;20672;-67
2022/05/24 03:31:21;;;;;;;1.60;1.50;;;16.10;99.90;;;;;;5012344;28;20195;-68
2022/05/24 03:33:47;;;;;;;1.70;1.60;;;16.20;99.90;;;;;;5012474;28;20171;-67
2022/05/24 03:36:12;;;;;;;1.60;1.50;;;16.10;99.90;;;;;;5012404;28;20428;-66
2022/05/24 03:38:38;;;;;;;1.50;1.40;;;16.10;99.90;;;;;;5012019;28;20640;-67
2022/05/24 03:41:03;;;;;;;2.13;1.40;;;16.10;99.90;;;;;;5012316;28;20672;-67
2022/05/24 03:43:29;;;;;;;1.43;1.33;;;16.00;99.90;;;;;;5012385;28;20849;-67
2022/05/24 03:46:06;;;;;;;2.63;1.87;;;16.00;99.90;;;;;;5012428;28;20568;-67
2022/05/24 03:48:32;;;;;;;1.90;1.70;;;15.90;99.90;;;;;;5011969;28;20199;-66
2022/05/24 03:50:57;;;;;;;2.10;1.90;;;15.80;99.90;;;;;;5012135;28;20640;-67
2022/05/24 03:53:25;;;;;;;2.17;2.00;;;15.80;99.90;;;;;;5012355;28;20988;-67
2022/05/24 03:55:51;;;;;;;1.80;1.70;;;15.90;99.90;;;;;;5012472;28;20163;-67
2022/05/24 03:58:17;;;;;;;2.07;1.87;;;15.90;99.90;;;;;;5012060;28;20939;-67
2022/05/24 04:00:44;;;;;;;1.63;1.53;;;16.00;99.90;;;;;;5012094;28;20446;-67
2022/05/24 04:03:09;;;;;;;2.00;1.40;;;16.10;99.90;;;;;;5010987;28;20935;-67
2022/05/24 04:05:36;;;;;;;2.07;1.87;;;16.10;99.90;;;;;;5012073;28;20417;-67
2022/05/24 04:08:02;;;;;;;2.10;1.90;;;16.10;99.90;;;;;;5012061;28;20213;-67
2022/05/24 04:10:30;;;;;;;1.90;1.80;;;16.20;99.90;;;;;;5015282;23;20639;-65
2022/05/24 04:12:55;;;;;;;1.37;1.30;;;16.30;99.90;;;;;;4974183;28;20516;-65
2022/05/24 04:15:23;;;;;;;1.97;1.77;;;16.20;99.90;;;;;;4976732;28;20506;-65
2022/05/24 04:17:50;;;;;;;1.77;1.67;;;16.20;99.90;;;;;;4976663;28;20180;-67
2022/05/24 04:20:16;;;;;;;1.23;1.17;;;16.20;99.90;;;;;;4976881;28;20443;-67
2022/05/24 04:22:43;;;;;;;3.80;3.03;;;16.20;99.90;;;;;;4976819;28;20420;-68
2022/05/24 04:25:10;;;;;;;2.20;2.00;;;16.20;99.90;;;;;;4976717;28;20428;-67
2022/05/24 04:27:35;;;;;;;4.70;3.27;;;16.10;99.90;;;;;;4976564;28;20511;-68
2022/05/24 04:30:01;;;;;;;3.97;3.43;;;16.10;99.90;;;;;;4974980;28;20883;-68
2022/05/24 04:32:26;;;;;;;4.70;3.67;;;16.10;99.90;;;;;;4976553;28;20165;-67
2022/05/24 04:34:52;;;;;;;2.30;2.17;;;16.20;99.90;;;;;;4976527;28;20648;-68
2022/05/24 04:37:18;;;;;;;2.60;1.70;;;16.30;99.90;;;;;;4976649;28;20545;-68
2022/05/24 04:39:44;;;;;;;1.87;1.77;;;16.40;99.90;;;;;;4976205;28;20176;-68
2022/05/24 04:42:19;;;;;;;3.23;1.90;;;16.30;99.90;;;;;;4976491;28;20801;-68
2022/05/24 04:44:57;;;;;;;2.20;1.93;;;16.30;99.90;;;;;;4976437;28;20176;-68
2022/05/24 04:47:24;;;;;;;3.47;2.70;;;16.20;99.90;;;;;;4976206;28;20422;-67
2022/05/24 04:49:56;;;;;;;2.10;2.00;;;16.10;99.90;;;;;;4976108;28;20478;-67
2022/05/24 04:52:24;;;;;;;2.30;2.10;;;16.10;99.90;;;;;;4976075;28;20434;-65
2022/05/24 04:54:50;;;;;;;4.30;3.07;;;16.10;99.90;;;;;;4975992;28;20792;-67
2022/05/24 04:57:17;;;;;;;2.17;1.97;;;16.20;99.90;;;;;;4975948;28;21032;-67
2022/05/24 04:59:42;;;;;;;2.10;1.90;;;16.20;99.90;;;;;;4975452;28;20514;-68
2022/05/24 05:02:09;;;;;;;4.53;4.13;;;16.20;99.90;;;;;;4976085;28;20502;-68
2022/05/24 05:04:35;;;;;;;5.00;2.80;;;16.30;99.90;;;;;;4976015;28;20173;-68
2022/05/24 05:07:01;;;;;;;2.50;2.30;;;16.40;99.90;;;;;;4975994;28;20428;-68
2022/05/24 05:09:34;;;;;;;2.30;2.20;;;16.40;99.90;;;;;;4975435;28;20455;-67
2022/05/24 05:12:06;;;;;;;3.50;1.80;;;16.60;99.90;;;;;;4975818;28;20664;-68
2022/05/24 05:14:33;;;;;;;2.30;2.10;;;16.60;99.90;;;;;;4975774;28;20458;-68
2022/05/24 05:16:58;;;;;;;2.73;2.10;;;16.50;99.90;;;;;;4975811;28;20435;-68
2022/05/24 05:19:24;;;;;;;2.40;2.20;;;16.50;99.90;;;;;;4975527;28;20498;-68
2022/05/24 05:21:49;;;;;;;2.40;2.30;;;16.50;99.90;;;;;;4975660;28;20196;-68
2022/05/24 05:24:15;;;;;;;2.60;2.50;;;16.50;99.90;;;;;;4974867;28;20184;-68
2022/05/24 05:26:41;;;;;;;6.27;2.50;;;16.60;99.90;;;;;;4975530;28;20551;-68
2022/05/24 05:29:06;;;;;;;3.70;2.47;;;16.70;99.90;;;;;;4975068;28;20326;-67
2022/05/24 05:31:32;;;;;;;4.13;2.67;;;16.70;99.90;;;;;;4975491;28;20188;-68
2022/05/24 05:34:00;;;;;;;4.10;2.50;;;16.70;99.90;;;;;;4975681;28;20559;-68
2022/05/24 05:36:27;;;;;;;3.30;2.77;;;16.90;99.90;;;;;;4975550;28;20165;-68
2022/05/24 05:38:54;;;;;;;2.83;2.60;;;17.00;99.90;;;;;;4975239;28;20526;-68
2022/05/24 05:41:29;;;;;;;2.40;2.20;;;17.10;99.90;;;;;;4975697;28;20451;-67
2022/05/24 05:43:56;;;;;;;2.60;2.20;;;17.30;99.90;;;;;;4975383;28;20451;-68
2022/05/24 05:46:22;;;;;;;3.30;2.47;;;17.40;99.90;;;;;;4975153;28;20435;-67
2022/05/24 05:48:47;;;;;;;3.37;2.77;;;17.50;99.90;;;;;;4974859;28;20531;-67
2022/05/24 05:51:15;;;;;;;2.13;1.93;;;17.60;99.90;;;;;;4975090;28;20462;-67
2022/05/24 05:53:41;;;;;;;2.63;2.40;;;17.80;99.90;;;;;;4975152;28;20176;-68
2022/05/24 05:56:18;;;;;;;2.70;2.23;;;18.00;99.90;;;;;;4975061;28;20415;-68
2022/05/24 05:58:45;;;;;;;1.90;1.80;;;18.20;99.90;;;;;;4974796;28;20427;-68
2022/05/24 06:01:16;;;;;;;3.40;1.87;;;18.30;99.90;;;;;;4974856;28;20435;-65
2022/05/24 06:03:41;;;;;;;2.43;2.23;;;18.50;99.90;;;;;;4974988;28;20416;-68
2022/05/24 06:06:09;;;;;;;2.17;1.97;;;18.40;99.90;;;;;;4974951;28;20438;-68
2022/05/24 06:08:35;;;;;;;4.03;2.43;;;18.40;99.90;;;;;;4974471;28;20287;-68
2022/05/24 06:11:00;;;;;;;3.70;2.10;;;18.40;99.90;;;;;;4974657;28;21088;-68
2022/05/24 06:13:27;;;;;;;4.60;3.07;;;18.40;99.90;;;;;;4974808;28;20199;-68
2022/05/24 06:15:55;;;;;;;6.40;1.97;;;18.50;99.90;;;;;;4974702;28;20177;-65
2022/05/24 06:18:20;;;;;;;1.80;1.70;;;18.50;99.90;;;;;;4974304;28;20423;-65
2022/05/24 06:20:46;;;;;;;2.23;2.03;;;18.40;99.90;;;;;;4974333;28;20979;-67
2022/05/24 06:23:11;;;;;;;2.03;1.90;;;18.50;99.90;;;;;;4974608;28;20172;-68
2022/05/24 06:25:39;;;;;;;2.47;2.23;;;18.60;99.90;;;;;;4974539;28;20717;-68
2022/05/24 06:28:05;;;;;;;2.80;2.00;;;18.70;99.90;;;;;;4974427;28;20218;-67
2022/05/24 06:30:31;;;;;;;2.53;1.90;;;18.60;99.90;;;;;;4974139;28;20446;-67
2022/05/24 06:32:57;;;;;;;2.50;2.30;;;18.80;99.90;;;;;;4974456;28;20419;-68
2022/05/24 06:35:22;;;;;;;3.67;2.30;;;18.90;99.90;;;;;;4974118;28;20243;-67
2022/05/24 06:37:48;;;;;;;1.83;1.73;;;18.80;99.90;;;;;;4974570;28;20176;-68
2022/05/24 06:40:17;;;;;;;2.30;2.10;;;18.90;99.90;;;;;;4974034;28;20188;-68
2022/05/24 06:42:42;;;;;;;2.23;2.13;;;18.90;99.90;;;;;;4974306;28;20503;-68
2022/05/24 06:45:08;;;;;;;1.93;1.83;;;18.80;99.90;;;;;;4974336;28;20510;-68
2022/05/24 06:47:34;;;;;;;3.60;2.40;;;18.90;99.90;;;;;;4974061;28;20177;-68
2022/05/24 06:50:00;;;;;;;2.30;2.07;;;19.10;99.90;;;;;;4973729;28;20440;-65
2022/05/24 06:52:26;;;;;;;4.77;2.20;;;19.20;99.90;;;;;;4974403;28;20423;-68
2022/05/24 06:54:53;;;;;;;3.30;2.20;;;19.30;99.90;;;;;;4973826;28;20176;-65
2022/05/24 06:57:18;;;;;;;4.13;2.00;;;19.20;99.90;;;;;;4973982;28;20169;-67
2022/05/24 07:02:28;;;;;;;2.60;1.70;;;18.80;99.90;;;;;;4973795;28;20243;-68
2022/05/24 07:05:04;;;;;;;2.43;2.20;;;18.60;99.90;;;;;;4973862;28;21004;-65
2022/05/24 07:07:32;;;;;;;4.70;2.30;;;18.40;99.90;;;;;;4973988;28;20184;-67
2022/05/24 07:09:58;;;;;;;1.70;1.60;;;18.30;99.90;;;;;;4973178;28;20462;-65
2022/05/24 07:12:24;;;;;;;2.60;1.60;;;18.10;99.90;;;;;;4974174;28;20502;-64
2022/05/24 07:14:51;;;;;;;7.50;2.30;;;17.10;99.90;;;;;;4973689;28;20420;-67
2022/05/24 07:17:17;;;;;;;2.10;1.17;;;15.90;99.90;;;;;;4973540;28;20412;-67
2022/05/24 07:19:44;;;;;;;3.07;1.67;;;15.00;99.90;;;;;;4973362;28;20521;-67
2022/05/24 07:22:11;;;;;;;1.70;1.13;;;14.60;99.90;;;;;;4973585;28;20420;-67
2022/05/24 07:24:37;;;;;;;1.77;1.10;;;14.10;99.90;;;;;;4973569;28;20423;-67
2022/05/24 07:27:04;;;;;;;3.40;1.10;;;13.90;99.90;;;;;;4969042;28;20439;-67
2022/05/24 07:29:36;;;;;;;5.73;2.43;;;13.80;99.90;;;;;;4941334;28;20477;-67
2022/05/24 07:32:02;;;;;;;1.97;1.50;;;13.90;99.90;;;;;;4962445;28;20426;-67
2022/05/24 07:34:28;;;;;;;4.90;1.57;;;14.00;99.90;;;;;;4973376;28;20510;-67
2022/05/24 07:36:54;;;;;;;8.13;1.30;;;14.10;99.90;;;;;;4972455;28;20543;-67
2022/05/24 07:39:19;;;;;;;1.30;1.20;;;14.40;99.90;;;;;;4966855;28;20216;-67
2022/05/24 07:47:13;;;;;;;1.50;1.40;;;14.60;99.90;;;;;;4973108;28;20435;-67
2022/05/24 07:49:39;;;;;;;3.20;2.60;;;14.80;99.90;;;;;;4969239;28;20459;-67
2022/05/24 07:52:05;;;;;;;1.73;1.50;;;14.90;99.90;;;;;;4973181;28;20172;-67
2022/05/24 07:54:32;;;;;;;2.30;1.10;;;15.10;99.90;;;;;;4972965;28;20180;-67
2022/05/24 07:56:58;;;;;;;2.40;1.27;;;15.40;99.90;;;;;;4973483;28;20426;-67
2022/05/24 07:59:24;;;;;;;3.00;1.73;;;15.60;99.90;;;;;;4969301;28;20940;-68
2022/05/24 08:01:50;;;;;;;3.13;1.73;;;16.00;99.90;;;;;;4972927;28;20448;-68
2022/05/24 08:04:16;;;;;;;1.37;1.10;;;16.60;99.90;;;;;;4973108;28;20187;-67
2022/05/24 08:06:41;;;;;;;1.90;1.50;;;16.90;99.90;;;;;;4972953;28;20180;-65
2022/05/24 08:09:06;;;;;;;1.20;1.10;;;17.20;99.90;;;;;;4968822;28;20204;-65
2022/05/24 08:11:32;;;;;;;2.30;1.10;;;17.20;99.90;;;;;;4972630;28;20208;-68
2022/05/24 08:13:59;;;;;;;8.03;1.20;;;17.40;99.90;;;;;;4973130;28;20267;-68
2022/05/24 08:16:28;;;;;;;2.43;1.10;;;17.80;99.90;;;;;;4971502;28;20180;-68
2022/05/24 08:18:53;;;;;;;1.10;0.83;;;18.10;99.90;;;;;;4972543;28;20419;-68
2022/05/24 08:21:19;;;;;;;3.30;1.60;;;18.50;99.90;;;;;;4972671;28;20462;-65
2022/05/24 08:23:45;;;;;;;1.80;1.00;;;18.80;99.90;;;;;;4972741;28;20173;-65
2022/05/24 08:26:12;;;;;;;2.93;1.37;;;18.80;99.90;;;;;;4972818;28;20922;-67
2022/05/24 08:28:38;;;;;;;2.10;1.13;;;18.70;99.90;;;;;;4972592;28;20227;-68
2022/05/24 08:31:03;;;;;;;1.20;1.10;;;18.60;99.90;;;;;;4972849;28;20467;-67
2022/05/24 08:33:29;;;;;;;1.40;1.13;;;18.40;99.90;;;;;;4972765;28;20597;-67
2022/05/24 08:35:55;;;;;;;1.60;0.80;;;18.50;99.90;;;;;;4972710;28;20593;-67
2022/05/24 08:38:23;;;;;;;2.43;0.93;;;18.80;99.90;;;;;;4965304;28;20227;-67
2022/05/24 08:40:49;;;;;;;1.50;1.40;;;19.10;99.90;;;;;;4968576;28;20944;-67
2022/05/24 08:49:46;;;;;;;1.60;1.10;;;19.30;99.90;;;;;;4968813;28;20893;-67
2022/05/24 08:52:12;;;;;;;1.13;1.10;;;19.10;99.90;;;;;;4969398;28;20521;-67
2022/05/24 08:54:45;;;;;;;2.17;1.07;;;19.20;99.90;;;;;;4967767;28;20438;-68
2022/05/24 08:57:16;;;;;;;0.80;0.80;;;19.30;99.90;;;;;;4969495;28;20553;-67
2022/05/24 08:59:51;;;;;;;1.60;1.50;;;19.50;99.90;;;;;;4969972;28;20423;-67
2022/05/24 09:02:19;;;;;;;3.03;1.43;;;19.70;99.90;;;;;;4972989;28;20438;-67
2022/05/24 09:04:44;;;;;;;3.77;3.37;;;19.60;99.90;;;;;;4972681;28;20860;-67
2022/05/24 09:07:58;;;;;;;1.50;0.83;;;20.00;99.90;;;;;;4972827;28;20431;-67
2022/05/24 09:10:33;;;;;;;1.40;1.30;;;20.60;99.90;;;;;;4951210;28;20224;-67
2022/05/24 09:13:39;;;;;;;1.23;1.13;;;20.70;99.90;;;;;;4972975;28;20506;-65
2022/05/24 09:16:10;;;;;;;2.37;1.10;;;20.10;99.90;;;;;;4874516;29;20810;-66
2022/05/24 09:19:12;;;;;;;1.00;1.00;;;20.00;99.90;;;;;;4874543;29;20475;-66
2022/05/24 09:21:42;;;;;;;2.20;1.00;;;20.20;99.90;;;;;;4949559;28;20452;-66
2022/05/24 09:24:31;;;;;;;1.47;1.17;;;20.40;99.90;;;;;;4991852;28;20454;-66
2022/05/24 09:27:13;;;;;;;1.40;1.10;;;21.00;99.90;;;;;;4991581;28;20974;-66
2022/05/24 09:30:02;;;;;;;0.80;0.80;;;21.30;99.90;;;;;;4985180;28;20953;-66
2022/05/24 09:32:48;;;;;;;1.57;1.33;;;22.00;99.90;;;;;;4974023;28;20427;-66
2022/05/24 09:35:18;;;;;;;1.43;0.80;;;22.10;99.90;;;;;;4974004;28;20474;-66
2022/05/24 09:38:04;;;;;;;1.47;1.37;;;22.10;99.90;;;;;;4975137;28;20412;-66
2022/05/24 09:40:42;;;;;;;1.53;0.77;;;22.60;99.90;;;;;;4975105;28;20485;-66
2022/05/24 09:43:23;;;;;;;3.13;0.90;;;22.20;99.70;;;;;;4975116;28;20938;-66
2022/05/24 09:45:57;;;;;;;1.40;0.80;;;21.60;99.90;;;;;;4975250;28;20420;-66
2022/05/24 09:48:27;;;;;;;4.30;1.33;;;21.10;99.90;;;;;;4974823;28;20521;-66
2022/05/24 09:50:54;;;;;;;0.80;0.77;;;20.80;99.90;;;;;;4975050;28;20436;-66
2022/05/24 09:53:26;;;;;;;1.10;1.10;;;20.60;99.90;;;;;;4975034;28;20415;-66
2022/05/24 09:55:59;;;;;;;1.50;1.40;;;20.50;99.90;;;;;;4975110;28;20423;-66
2022/05/24 09:58:52;;;;;;;6.80;2.23;;;20.20;99.90;;;;;;4974362;28;20474;-66
2022/05/24 10:01:43;;;;;;;1.10;1.00;;;21.80;99.90;;;;;;4975064;28;20436;-66
2022/05/24 10:04:33;;;;;;;1.43;1.33;;;23.50;99.60;;;;;;4974937;28;20423;-66
2022/05/24 10:07:08;;;;;;;2.10;1.40;;;23.40;97.30;;;;;;4974919;28;20431;-66
2022/05/24 10:09:45;;;;;;;1.23;0.97;;;22.20;98.50;;;;;;4973668;28;21112;-66
2022/05/24 10:12:29;;;;;;;2.00;0.90;;;21.60;98.80;;;;;;4974588;28;20438;-66
2022/05/24 10:15:03;;;;;;;3.03;1.00;;;22.20;99.50;;;;;;4974654;28;20450;-66
2022/05/24 10:17:34;;;;;;;1.83;1.43;;;22.90;94.90;;;;;;4974575;28;20792;-67
2022/05/24 10:20:16;;;;;;;1.63;1.17;;;24.20;95.80;;;;;;4974261;28;20440;-66
2022/05/24 10:23:25;;;;;;;1.03;1.03;;;26.50;92.70;;;;;;4974910;28;20519;-66
2022/05/24 10:26:12;;;;;;;0.97;0.87;;;27.30;82.80;;;;;;4965798;28;20522;-66
2022/05/24 10:28:53;;;;;;;1.10;1.10;;;28.50;74.10;;;;;;4974051;28;20450;-66
2022/05/24 10:31:40;;;;;;;0.80;0.80;;;28.50;66.90;;;;;;4974482;28;20447;-67
2022/05/24 10:38:17;;;;;;;1.90;0.80;;;28.50;65.00;;;;;;4974437;28;20438;-67
2022/05/24 10:40:30;;;;;;;1.37;0.87;;;26.60;64.00;;;;;;4954522;29;20491;-67
2022/05/24 10:43:35;;;;;;;0.93;0.77;;;26.20;64.90;;;;;;4962575;28;20795;-66
2022/05/24 10:46:10;;;;;;;1.37;1.00;;;25.60;67.20;;;;;;4954849;29;20812;-67
2022/05/24 10:49:02;;;;;;;2.50;1.23;;;25.00;67.10;;;;;;4972697;28;20454;-67
2022/05/24 10:51:48;;;;;;;0.83;0.80;;;23.40;72.00;;;;;;4973804;28;20447;-67
2022/05/24 10:54:29;;;;;;;1.10;1.00;;;24.10;71.40;;;;;;4974021;28;20415;-67
2022/05/24 10:57:04;;;;;;;1.17;1.07;;;24.20;72.90;;;;;;4970417;28;20424;-67
2022/05/24 10:59:52;;;;;;;1.40;1.30;;;24.10;74.60;;;;;;4954227;28;20456;-66
2022/05/24 11:02:23;;;;;;;1.50;1.40;;;23.50;73.30;;;;;;4954156;28;20420;-66
2022/05/24 11:05:17;;;;;;;1.70;1.07;;;23.20;76.00;;;;;;4970304;28;21011;-66
2022/05/24 11:07:46;;;;;;;1.60;1.50;;;22.80;79.50;;;;;;4970380;28;20443;-66
2022/05/24 11:10:24;;;;;;;1.17;1.07;;;24.80;76.10;;;;;;4973168;28;20541;-66
2022/05/24 11:12:53;;;;;;;3.93;1.00;;;27.70;69.00;;;;;;4973306;28;20498;-67
2022/05/24 11:15:44;;;;;;;1.27;1.13;;;28.10;64.50;;;;;;4973191;28;20503;-66
2022/05/24 11:18:18;;;;;;;1.30;1.17;;;27.20;65.80;;;;;;4973204;28;20434;-66
2022/05/24 11:20:50;;;;;;;1.70;0.90;;;25.70;66.30;;;;;;4972932;28;20443;-66
2022/05/24 11:23:21;;;;;;;2.90;2.60;;;25.40;68.20;;;;;;4962576;28;20431;-67
2022/05/24 11:25:58;;;;;;;2.00;1.80;;;25.70;69.60;;;;;;4970134;28;20427;-66
2022/05/24 11:28:33;;;;;;;2.33;1.10;;;24.80;67.70;;;;;;4959918;28;20505;-66
2022/05/24 11:31:37;;;;;;;1.57;1.17;;;23.90;69.70;;;;;;4951071;28;20439;-66
2022/05/24 11:34:30;;;;;;;1.93;0.90;;;23.80;70.10;;;;;;4950889;28;20420;-66
2022/05/24 11:37:27;;;;;;;2.83;1.20;;;25.40;66.90;;;;;;4950446;29;20432;-66
2022/05/24 11:39:53;;;;;;;2.73;1.10;;;27.60;61.20;;;;;;4954744;28;20451;-67
2022/05/24 11:42:34;;;;;;;1.30;1.07;;;26.90;61.60;;;;;;4970130;28;21226;-67
2022/05/24 11:45:28;;;;;;;1.43;1.27;;;25.80;64.20;;;;;;4970002;28;20450;-67
2022/05/24 11:47:54;;;;;;;2.70;1.17;;;25.30;65.60;;;;;;4969817;28;20511;-66
2022/05/24 11:50:31;;;;;;;1.00;0.90;;;26.20;67.30;;;;;;4969375;28;20925;-66
2022/05/24 11:53:15;;;;;;;1.40;1.30;;;26.80;65.70;;;;;;4970044;28;20693;-67
2022/05/24 11:55:56;;;;;;;1.33;1.23;;;26.70;65.90;;;;;;4969966;28;20423;-66
2022/05/24 11:58:22;;;;;;;1.40;1.10;;;26.10;66.60;;;;;;4969352;28;20528;-66
2022/05/24 12:01:08;;;;;;;4.17;1.33;;;24.60;68.60;;;;;;4969691;28;20443;-66
2022/05/24 12:09:22;;;;;;;0.77;0.77;;;25.70;70.70;;;;;;4969452;28;20551;-67
2022/05/24 12:12:08;;;;;;;1.13;1.03;;;26.40;67.80;;;;;;4969637;28;20471;-66
2022/05/24 12:14:36;;;;;;;1.53;1.00;;;27.60;65.40;;;;;;4969506;28;20774;-66
2022/05/24 12:17:02;;;;;;;1.40;1.10;;;26.60;64.20;;;;;;4968220;28;21072;-66
2022/05/24 12:19:49;;;;;;;1.83;1.10;;;25.70;65.00;;;;;;4966220;28;20437;-67
2022/05/24 12:22:22;;;;;;;1.47;1.37;;;24.70;67.50;;;;;;4970868;28;20257;-66
2022/05/24 12:24:54;;;;;;;2.83;1.10;;;24.20;69.80;;;;;;4971613;28;20784;-66
2022/05/24 12:27:45;;;;;;;1.67;1.10;;;24.30;70.20;;;;;;4972463;28;20416;-67
2022/05/24 12:30:22;;;;;;;1.53;1.20;;;25.40;69.30;;;;;;4972116;28;20455;-67
2022/05/24 12:32:49;;;;;;;1.20;1.00;;;27.80;63.80;;;;;;4972689;28;20494;-67
2022/05/24 12:35:16;;;;;;;1.40;1.30;;;30.00;57.50;;;;;;4976117;28;20412;-67
2022/05/24 12:37:46;;;;;;;1.87;1.23;;;31.00;56.90;;;;;;4976397;28;20451;-67
2022/05/24 12:40:14;;;;;;;1.20;1.10;;;33.50;53.40;;;;;;4975946;28;20435;-67
2022/05/24 12:43:07;;;;;;;1.13;1.00;;;34.50;48.10;;;;;;4976533;28;20415;-67
2022/05/24 12:45:35;;;;;;;2.20;0.97;;;33.10;45.70;;;;;;4970301;28;20430;-67
2022/05/24 12:48:01;;;;;;;1.30;1.20;;;31.40;46.00;;;;;;4974837;28;20975;-67
2022/05/24 12:50:37;;;;;;;1.00;1.00;;;28.90;47.80;;;;;;4975731;28;20436;-67
2022/05/24 12:53:07;;;;;;;1.23;1.07;;;28.60;50.30;;;;;;4976161;28;20423;-67
2022/05/24 12:58:27;;;;;;;1.43;1.13;;;29.90;47.80;;;;;;4975880;28;20474;-67
2022/05/24 13:01:23;;;;;;;1.00;1.00;;;30.50;47.00;;;;;;4967772;28;20459;-67
2022/05/24 13:04:01;;;;;;;1.00;1.00;;;28.80;48.60;;;;;;4957707;28;20444;-67
2022/05/24 13:06:30;;;;;;;1.23;1.00;;;28.00;49.20;;;;;;4956498;28;20416;-67
2022/05/24 13:09:18;;;;;;;1.03;0.97;;;28.50;49.70;;;;;;4967532;28;20529;-67
2022/05/24 13:11:50;;;;;;;1.63;0.90;;;27.20;49.20;;;;;;4975521;28;20542;-67
2022/05/24 13:14:44;;;;;;;1.03;0.93;;;25.90;52.90;;;;;;4975814;28;20487;-66
2022/05/24 13:17:10;;;;;;;1.10;1.10;;;24.60;53.90;;;;;;4975562;28;20423;-66
2022/05/24 13:19:54;;;;;;;4.10;1.30;;;23.90;56.20;;;;;;4975178;28;20446;-66
2022/05/24 13:22:23;;;;;;;1.90;1.30;;;23.10;59.50;;;;;;4975513;28;20882;-66
2022/05/24 13:24:58;;;;;;;2.80;1.10;;;22.70;61.40;;;;;;4975662;28;20791;-66
2022/05/24 13:27:25;;;;;;;1.93;1.20;;;22.50;62.50;;;;;;4975604;28;20419;-66
2022/05/24 13:35:28;;;;;;;1.43;0.90;;;24.20;61.80;;;;;;4995114;28;20932;-67
2022/05/24 13:37:57;;;;;;;3.57;1.63;;;26.00;58.40;;;;;;4987974;28;20424;-67
2022/05/24 13:40:38;;;;;;;1.03;1.03;;;26.10;57.70;;;;;;4974978;28;20195;-67
2022/05/24 13:43:03;;;;;;;2.70;1.27;;;25.90;56.50;;;;;;4975311;28;20497;-67
2022/05/24 13:45:29;;;;;;;1.23;1.00;;;25.10;57.20;;;;;;4974521;28;20937;-67
2022/05/24 13:47:57;;;;;;;1.53;1.30;;;25.30;56.90;;;;;;4974865;28;20172;-66
2022/05/24 13:50:29;;;;;;;1.10;1.10;;;25.40;60.10;;;;;;4974738;28;20659;-67
2022/05/24 13:53:08;;;;;;;2.00;1.13;;;25.80;57.50;;;;;;4974815;28;20558;-66